Time;durP1;ratioP1;P1;durP2;ratioP2;P2;SDS_P1;SDS_P2;PMS_P1;PMS_P2;Temp;Humidity;BMP_temperature;BMP_pressure;BME280_temperature;BME280_humidity;BME280_pressure;Samples;Min_cycle;Max_cycle;Signal;HPM_P1;HPM_P2
2024/01/20 01:31:22;;;;;;;17.38;2.72;;;;;;;5.65;100.00;100178.16;4936556;28;20456;-97
2024/01/20 01:33:49;;;;;;;14.65;2.67;;;;;;;5.68;100.00;100188.41;4921953;28;20110;-96
2024/01/20 01:36:36;;;;;;;9.57;1.35;;;;;;;5.62;100.00;100178.41;4948334;28;20527;-96
2024/01/20 02:19:43;;;;;;;;;;;;;;;;;;;;;
2024/01/20 03:16:17;;;;;;;20.73;2.38;;;;;;;5.80;100.00;100058.09;5017860;28;20044;-96
2024/01/20 03:19:09;;;;;;;18.00;2.13;;;;;;;5.83;100.00;100077.06;5020920;28;20033;-96
2024/01/20 03:21:57;;;;;;;;;;;;;;;;;;;;;
2024/01/20 03:24:30;;;;;;;19.05;2.33;;;;;;;5.85;100.00;100069.06;4962505;28;20036;-96
2024/01/20 03:26:57;;;;;;;16.98;1.58;;;;;;;5.89;100.00;100082.78;4961903;28;20910;-96
2024/01/20 03:29:51;;;;;;;18.73;2.35;;;;;;;5.97;100.00;100069.88;4990363;28;21272;-96
2024/01/20 03:32:30;;;;;;;18.58;1.80;;;;;;;5.92;100.00;100059.78;5017812;28;20065;-96
2024/01/20 03:35:00;;;;;;;10.50;1.70;;;;;;;5.91;100.00;100067.75;4977048;28;20041;-96
2024/01/20 03:38:02;;;;;;;10.93;1.52;;;;;;;5.94;100.00;100065.72;4974858;28;20532;-95
2024/01/20 03:40:38;;;;;;;11.73;1.55;;;;;;;5.96;100.00;100068.22;4993213;28;20053;-96
2024/01/20 03:43:06;;;;;;;10.43;1.40;;;;;;;5.91;100.00;100067.75;4973808;28;20026;-96
2024/01/20 03:45:32;;;;;;;11.85;1.75;;;;;;;5.94;100.00;100067.50;5003297;28;20042;-96
2024/01/20 03:47:59;;;;;;;10.00;1.45;;;;;;;5.95;100.00;100058.69;4993873;28;20109;-96
2024/01/20 03:50:27;;;;;;;14.07;1.50;;;;;;;5.95;100.00;100054.28;4999990;28;20038;-96
2024/01/20 03:52:53;;;;;;;12.82;1.90;;;;;;;5.99;100.00;100067.16;4989294;28;20058;-95
2024/01/20 03:55:41;;;;;;;11.35;1.35;;;;;;;5.92;100.00;100053.69;4969572;28;20054;-96
2024/01/20 03:58:24;;;;;;;9.02;1.63;;;;;;;5.99;100.00;100062.72;4987854;28;20038;-96
2024/01/20 04:00:50;;;;;;;12.88;1.42;;;;;;;5.93;100.00;100061.44;5001283;28;20053;-96
2024/01/20 04:03:18;;;;;;;12.75;2.28;;;;;;;5.96;100.00;100049.84;4978230;28;20069;-96
2024/01/20 04:05:47;;;;;;;10.20;1.25;;;;;;;5.89;100.00;100043.44;4976720;28;20169;-96
2024/01/20 04:08:43;;;;;;;;;;;;;;;;;;;;;
2024/01/20 04:11:23;;;;;;;9.75;1.42;;;;;;;5.88;100.00;100033.88;4998476;28;20415;-96
2024/01/20 04:14:48;;;;;;;11.43;1.75;;;;;;;5.87;100.00;100038.31;4980285;28;20060;-96
2024/01/20 04:17:28;;;;;;;14.63;2.47;;;;;;;5.75;100.00;100029.63;4992049;28;20042;-96
2024/01/20 04:20:01;;;;;;;10.32;1.10;;;;;;;5.75;100.00;100019.13;4989544;28;20064;-96
2024/01/20 04:22:33;;;;;;;12.27;1.58;;;;;;;5.83;100.00;100042.13;5013724;28;20049;-96
2024/01/20 04:25:20;;;;;;;14.00;1.30;;;;;;;5.80;100.00;100021.38;5011215;28;20041;-96
2024/01/20 04:27:49;;;;;;;12.27;1.58;;;;;;;5.76;100.00;100038.34;4990023;28;20049;-96
2024/01/20 04:30:53;;;;;;;12.00;1.27;;;;;;;5.78;100.00;100029.38;4995979;28;20050;-96
2024/01/20 04:34:04;;;;;;;10.20;1.48;;;;;;;5.89;100.00;100025.06;4979619;28;20026;-93
2024/01/20 04:37:02;;;;;;;11.18;1.70;;;;;;;5.84;100.00;100022.81;5005943;28;20050;-96
2024/01/20 04:39:33;;;;;;;8.40;1.35;;;;;;;5.89;100.00;100019.81;4992930;28;20030;-96
2024/01/20 04:42:00;;;;;;;15.40;1.30;;;;;;;5.90;100.00;100024.94;4995434;28;20060;-96
2024/01/20 04:44:28;;;;;;;9.98;1.35;;;;;;;5.92;100.00;100016.97;4999444;28;20030;-96
2024/01/20 04:46:58;;;;;;;14.93;2.53;;;;;;;5.90;100.00;100013.63;4992980;28;20041;-96
2024/01/20 04:49:27;;;;;;;9.25;1.20;;;;;;;5.94;100.00;100008.00;4977158;28;20131;-96
2024/01/20 04:51:55;;;;;;;10.15;1.30;;;;;;;5.94;100.00;99994.06;4986731;28;20022;-96
2024/01/20 04:54:21;;;;;;;18.20;1.85;;;;;;;5.93;100.00;99980.09;5003885;28;20033;-96
2024/01/20 04:56:47;;;;;;;11.88;1.75;;;;;;;5.95;100.00;99998.34;4990084;28;20040;-96
2024/01/20 04:59:13;;;;;;;7.00;1.48;;;;;;;6.00;100.00;99958.63;4979041;28;20443;-96
2024/01/20 05:01:39;;;;;;;12.68;1.73;;;;;;;6.06;100.00;99994.88;4986382;28;20033;-96
2024/01/20 05:04:05;;;;;;;12.27;1.42;;;;;;;6.07;100.00;99992.13;4971017;28;20030;-96
2024/01/20 05:06:31;;;;;;;8.52;1.67;;;;;;;6.11;100.00;99984.84;4989620;28;20041;-96
2024/01/20 05:08:57;;;;;;;6.05;0.93;;;;;;;6.08;100.00;99993.78;4994302;28;20049;-96
2024/01/20 05:11:27;;;;;;;14.07;1.70;;;;;;;6.15;100.00;99988.00;4996077;28;20046;-96
2024/01/20 05:13:53;;;;;;;9.93;1.73;;;;;;;6.12;100.00;99990.88;4998579;28;20034;-96
2024/01/20 05:16:20;;;;;;;12.73;1.45;;;;;;;6.14;100.00;99989.81;4986962;28;20038;-96
2024/01/20 05:18:48;;;;;;;11.93;1.40;;;;;;;6.11;100.00;99978.75;4969395;28;20042;-96
2024/01/20 05:21:19;;;;;;;10.00;1.65;;;;;;;6.14;100.00;99986.34;4965250;28;20035;-96
2024/01/20 05:23:46;;;;;;;11.05;1.48;;;;;;;6.18;100.00;99979.91;4983792;28;20034;-96
2024/01/20 05:26:12;;;;;;;11.60;1.65;;;;;;;6.22;100.00;99998.84;4981528;28;20517;-96
2024/01/20 05:28:38;;;;;;;11.20;1.40;;;;;;;6.26;100.00;99998.47;4968861;28;20057;-96
2024/01/20 05:31:04;;;;;;;16.65;1.90;;;;;;;6.26;100.00;99993.22;4969937;28;20468;-96
2024/01/20 05:33:31;;;;;;;10.07;1.42;;;;;;;6.31;100.00;99998.06;4984302;28;20165;-96
2024/01/20 05:35:57;;;;;;;10.40;1.30;;;;;;;6.37;100.00;99987.06;4964169;28;20086;-96
2024/01/20 05:38:23;;;;;;;12.20;1.80;;;;;;;6.32;100.00;99984.81;4951555;28;20105;-96
2024/01/20 05:40:52;;;;;;;11.20;1.60;;;;;;;6.38;100.00;99978.25;4977251;28;20074;-96
2024/01/20 05:43:19;;;;;;;8.13;1.73;;;;;;;6.33;100.00;99978.63;4988720;28;20034;-96
2024/01/20 05:46:04;;;;;;;11.77;1.77;;;;;;;6.41;100.00;99975.38;4973101;28;20026;-96
2024/01/20 05:48:36;;;;;;;11.52;1.67;;;;;;;6.45;100.00;99971.50;4981595;28;20034;-96
2024/01/20 05:51:08;;;;;;;6.13;1.25;;;;;;;6.39;100.00;99973.81;4957083;28;20042;-96
2024/01/20 05:53:37;;;;;;;12.68;2.30;;;;;;;6.44;100.00;99979.50;4988110;28;20050;-96
2024/01/20 05:56:03;;;;;;;10.15;1.40;;;;;;;6.45;100.00;99983.78;4973090;28;20031;-96
2024/01/20 05:58:29;;;;;;;9.55;1.38;;;;;;;6.41;100.00;99983.25;5004236;28;20026;-96
2024/01/20 06:01:05;;;;;;;12.15;1.98;;;;;;;6.45;100.00;99996.91;4987349;28;20033;-96
2024/01/20 06:03:33;;;;;;;12.45;1.30;;;;;;;6.44;100.00;100006.59;5004449;28;20029;-95
2024/01/20 06:06:02;;;;;;;12.73;1.67;;;;;;;6.47;100.00;99999.44;4957077;28;20087;-96
2024/01/20 06:08:29;;;;;;;13.10;1.75;;;;;;;6.44;100.00;100001.38;4971261;28;20110;-96
2024/01/20 06:10:56;;;;;;;6.03;1.13;;;;;;;6.49;100.00;100015.88;5000403;28;20031;-96
2024/01/20 06:13:22;;;;;;;14.80;1.52;;;;;;;6.49;100.00;100005.38;4969585;28;20087;-96
2024/01/20 06:15:48;;;;;;;11.00;1.42;;;;;;;6.45;100.00;100010.91;4974254;28;20038;-96
2024/01/20 06:18:27;;;;;;;14.55;1.88;;;;;;;6.42;100.00;99995.41;4990670;28;20049;-96
2024/01/20 06:20:59;;;;;;;15.38;1.50;;;;;;;6.49;100.00;100008.84;4979991;28;20074;-96
2024/01/20 06:23:26;;;;;;;19.88;1.92;;;;;;;6.44;100.00;100009.22;4990606;28;20038;-95
2024/01/20 06:25:59;;;;;;;12.60;1.60;;;;;;;6.40;100.00;100009.63;4995527;28;20061;-96
2024/01/20 06:28:26;;;;;;;9.55;1.35;;;;;;;6.47;100.00;100023.09;4989868;28;20295;-96
2024/01/20 06:30:52;;;;;;;8.13;1.00;;;;;;;6.42;100.00;100018.19;4981146;28;20041;-96
2024/01/20 06:33:19;;;;;;;14.93;1.60;;;;;;;6.42;100.00;100016.41;4989918;28;20034;-95
2024/01/20 06:35:45;;;;;;;9.73;1.08;;;;;;;6.39;100.00;100002.69;4996724;28;20058;-96
2024/01/20 06:38:13;;;;;;;9.43;1.70;;;;;;;6.36;100.00;100002.94;4989357;28;20049;-96
2024/01/20 06:40:39;;;;;;;16.25;1.42;;;;;;;6.38;100.00;100003.66;4991735;28;20105;-96
2024/01/20 06:43:06;;;;;;;6.13;1.23;;;;;;;6.37;100.00;100008.06;4996618;28;20049;-96
2024/01/20 06:45:34;;;;;;;8.55;1.10;;;;;;;6.37;100.00;100004.63;4997947;28;20129;-96
2024/01/20 06:48:01;;;;;;;10.82;1.90;;;;;;;6.39;100.00;100000.91;4977364;28;20069;-96
2024/01/20 06:50:28;;;;;;;7.45;1.05;;;;;;;6.38;100.00;100001.88;5015448;28;20043;-96
2024/01/20 06:52:54;;;;;;;13.77;1.38;;;;;;;6.45;100.00;100018.75;4972398;28;20037;-96
2024/01/20 06:55:20;;;;;;;7.25;1.08;;;;;;;6.42;100.00;100008.53;4994331;28;20029;-96
2024/01/20 06:57:47;;;;;;;12.38;1.45;;;;;;;6.42;100.00;99999.81;4984305;28;20061;-96
2024/01/20 07:00:18;;;;;;;9.73;1.00;;;;;;;6.42;100.00;100008.53;5024614;28;20509;-95
2024/01/20 07:02:45;;;;;;;11.30;1.50;;;;;;;6.42;100.00;100002.44;4972265;28;20054;-96
2024/01/20 07:05:11;;;;;;;6.43;1.00;;;;;;;6.45;100.00;100012.69;4981154;28;20037;-96
2024/01/20 07:07:38;;;;;;;14.68;1.15;;;;;;;6.42;100.00;100005.06;4974826;28;20045;-96
2024/01/20 07:10:08;;;;;;;12.63;1.90;;;;;;;6.49;100.00;100011.47;5014310;28;20037;-96
2024/01/20 07:12:35;;;;;;;13.90;1.40;;;;;;;6.52;100.00;100000.72;5000460;28;20036;-96
2024/01/20 07:15:02;;;;;;;13.57;1.85;;;;;;;6.51;100.00;100008.72;4984681;28;20068;-96
2024/01/20 07:17:29;;;;;;;8.80;1.33;;;;;;;6.49;100.00;100002.75;5005846;28;20053;-96
2024/01/20 07:19:56;;;;;;;11.88;2.13;;;;;;;6.52;100.00;100003.34;5048810;23;20105;-96
2024/01/20 07:22:23;;;;;;;10.15;1.17;;;;;;;6.56;100.00;100011.81;5030678;28;20033;-96
2024/01/20 07:24:48;;;;;;;14.95;1.83;;;;;;;6.55;100.00;100012.75;4990747;28;20490;-96
2024/01/20 07:27:14;;;;;;;15.88;1.65;;;;;;;6.62;100.00;100013.91;5030485;28;20512;-96
2024/01/20 07:29:41;;;;;;;10.90;1.30;;;;;;;6.62;100.00;100015.69;5029008;28;20100;-96
2024/01/20 07:32:07;;;;;;;12.25;1.48;;;;;;;6.59;100.00;100003.66;5008300;28;20049;-96
2024/01/20 07:34:33;;;;;;;7.93;1.25;;;;;;;6.65;100.00;100004.94;5037727;28;20104;-96
2024/01/20 07:36:59;;;;;;;9.50;1.52;;;;;;;6.61;100.00;99999.09;5000611;28;20033;-96
2024/01/20 07:39:25;;;;;;;12.82;1.77;;;;;;;6.66;100.00;100007.44;5016298;28;20087;-96
2024/01/20 07:41:51;;;;;;;11.80;1.30;;;;;;;6.61;100.00;100011.41;5003399;28;20042;-96
2024/01/20 07:44:18;;;;;;;10.82;1.30;;;;;;;6.65;100.00;100008.41;5007631;28;20029;-96
2024/01/20 07:46:44;;;;;;;12.38;2.05;;;;;;;6.67;100.00;100005.63;5021385;28;20413;-96
2024/01/20 07:49:10;;;;;;;17.52;1.63;;;;;;;6.64;100.00;99998.03;5019881;28;20017;-96
2024/01/20 07:51:37;;;;;;;8.48;1.23;;;;;;;6.66;100.00;100007.44;5038363;28;20090;-96
2024/01/20 07:54:09;;;;;;;14.95;1.65;;;;;;;6.70;100.00;100015.88;5020439;28;20041;-96
2024/01/20 07:56:37;;;;;;;6.97;2.03;;;;;;;6.70;100.00;100005.38;5014960;28;20061;-96
2024/01/20 07:59:05;;;;;;;10.88;1.33;;;;;;;6.74;100.00;100024.31;4998359;28;20043;-96
2024/01/20 08:01:31;;;;;;;11.38;1.65;;;;;;;6.70;100.00;100015.88;5004652;28;20033;-96
2024/01/20 08:03:57;;;;;;;9.07;1.15;;;;;;;6.71;100.00;100022.78;5012423;28;20029;-96
2024/01/20 08:06:23;;;;;;;17.23;2.05;;;;;;;6.73;100.00;100020.03;5019903;28;20057;-96
2024/01/20 08:08:52;;;;;;;10.27;1.08;;;;;;;6.70;100.00;100021.13;5002902;28;20402;-96
2024/01/20 08:11:18;;;;;;;21.20;1.98;;;;;;;6.72;100.00;100018.38;5029993;28;20621;-96
2024/01/20 08:13:44;;;;;;;11.43;1.90;;;;;;;6.73;100.00;100015.63;4979103;28;20041;-96
2024/01/20 08:16:10;;;;;;;6.45;1.25;;;;;;;6.70;100.00;100018.50;5000315;28;20037;-96
2024/01/20 08:23:07;;;;;;;11.25;1.48;;;;;;;6.72;100.00;100029.69;5026240;28;20045;-96
2024/01/20 08:25:34;;;;;;;12.50;1.33;;;;;;;6.76;100.00;100033.75;4998885;28;20030;-96
2024/01/20 08:28:17;;;;;;;12.07;1.83;;;;;;;6.76;100.00;100017.16;4994158;28;20053;-96
2024/01/20 08:30:46;;;;;;;10.73;1.52;;;;;;;6.78;100.00;100009.97;4996510;28;20045;-96
2024/01/20 08:33:12;;;;;;;7.13;1.23;;;;;;;6.80;100.00;100008.88;5030752;28;20033;-96
2024/01/20 08:35:38;;;;;;;10.30;2.00;;;;;;;6.85;100.00;100012.94;4985242;28;20025;-96
2024/01/20 08:38:07;;;;;;;14.75;1.73;;;;;;;6.82;100.00;100006.97;5006001;28;20972;-96
2024/01/20 08:40:33;;;;;;;14.65;1.45;;;;;;;6.85;100.00;100000.59;5017101;28;20045;-94
2024/01/20 08:42:59;;;;;;;4.97;1.20;;;;;;;6.90;100.00;100013.34;4987099;28;20037;-96
2024/01/20 08:45:25;;;;;;;10.52;1.30;;;;;;;6.94;100.00;100014.75;5003212;28;20025;-96
2024/01/20 08:47:51;;;;;;;10.88;1.95;;;;;;;6.96;100.00;100012.81;5009616;28;20037;-92
2024/01/20 08:50:18;;;;;;;11.90;1.75;;;;;;;6.90;100.00;100010.72;5011925;28;20453;-96
2024/01/20 08:52:44;;;;;;;8.95;1.33;;;;;;;6.98;100.00;100017.94;4980612;28;20025;-96
2024/01/20 08:55:10;;;;;;;6.30;0.90;;;;;;;7.01;100.00;99999.28;5014496;28;20043;-96
2024/01/20 08:57:36;;;;;;;14.35;1.40;;;;;;;7.00;100.00;99990.59;5002805;28;20047;-96
2024/01/20 09:00:04;;;;;;;11.00;1.33;;;;;;;7.04;100.00;99978.03;5013313;28;20116;-96
2024/01/20 09:02:30;;;;;;;6.65;1.45;;;;;;;7.03;100.00;99981.59;5018379;28;20054;-96
2024/01/20 09:04:56;;;;;;;7.82;0.90;;;;;;;7.08;100.00;99984.66;5020911;28;20040;-96
2024/01/20 09:07:22;;;;;;;7.85;0.85;;;;;;;7.15;100.00;99983.16;5015060;28;20045;-96
2024/01/20 09:09:48;;;;;;;3.92;0.82;;;;;;;7.15;100.00;99985.78;5013684;28;20029;-96
2024/01/20 09:12:14;;;;;;;8.57;1.02;;;;;;;7.17;100.00;99991.75;5016763;28;20129;-96
2024/01/20 09:14:41;;;;;;;7.38;1.05;;;;;;;7.19;100.00;99983.72;5012163;28;20128;-96
2024/01/20 09:17:10;;;;;;;6.53;1.17;;;;;;;7.25;100.00;99977.09;5008704;28;20594;-96
2024/01/20 09:19:35;;;;;;;7.72;0.98;;;;;;;7.32;100.00;99983.50;5011524;28;20133;-96
2024/01/20 09:22:01;;;;;;;6.80;1.10;;;;;;;7.28;100.00;99979.44;4996175;28;20084;-96
2024/01/20 09:24:27;;;;;;;10.20;1.20;;;;;;;7.31;100.00;99973.97;5013233;28;20068;-96
2024/01/20 09:26:53;;;;;;;4.57;1.08;;;;;;;7.34;100.00;99954.44;4995492;28;20041;-96
2024/01/20 09:29:19;;;;;;;7.95;0.80;;;;;;;7.35;100.00;99970.06;5011403;28;20036;-96
2024/01/20 09:31:45;;;;;;;6.55;0.82;;;;;;;7.40;100.00;99970.50;5029827;28;20033;-96
2024/01/20 09:34:11;;;;;;;9.20;1.02;;;;;;;7.44;100.00;99982.41;5050321;28;20484;-96
2024/01/20 09:36:37;;;;;;;6.72;1.13;;;;;;;7.45;100.00;99970.09;5031414;28;20040;-96
2024/01/20 09:39:04;;;;;;;6.20;0.85;;;;;;;7.49;100.00;99971.47;5018077;28;20481;-96
2024/01/20 09:41:30;;;;;;;7.88;1.20;;;;;;;7.49;100.00;99971.47;5017292;28;20028;-96
2024/01/20 09:43:58;;;;;;;3.67;1.00;;;;;;;7.54;100.00;99976.34;5024405;28;20025;-95
2024/01/20 09:46:25;;;;;;;4.82;1.35;;;;;;;7.55;100.00;99965.69;5000532;28;20037;-96
2024/01/20 09:48:55;;;;;;;10.15;1.58;;;;;;;7.57;100.00;99955.88;5011492;28;20599;-95
2024/01/20 09:51:24;;;;;;;10.05;1.63;;;;;;;7.67;100.00;99968.19;5028537;28;20731;-96
2024/01/20 09:54:14;;;;;;;5.63;0.85;;;;;;;7.73;100.00;99977.31;5016772;28;20033;-96
2024/01/20 09:56:41;;;;;;;5.50;0.80;;;;;;;7.64;100.00;99956.16;5031033;28;20033;-96
2024/01/20 09:59:09;;;;;;;7.72;0.85;;;;;;;7.68;100.00;99961.94;5025587;28;20481;-95
2024/01/20 10:01:37;;;;;;;5.97;1.70;;;;;;;7.71;100.00;99958.22;5016179;28;20103;-95
2024/01/20 10:04:04;;;;;;;6.22;1.13;;;;;;;7.66;100.00;99956.00;4998093;28;20069;-96
2024/01/20 10:06:30;;;;;;;9.20;1.23;;;;;;;7.69;100.00;99950.47;5010889;28;20071;-96
2024/01/20 10:08:56;;;;;;;7.13;0.73;;;;;;;7.62;100.00;99952.81;5029033;28;20036;-96
2024/01/20 10:11:22;;;;;;;4.72;0.60;;;;;;;7.65;100.00;99942.03;5017659;28;20112;-96
2024/01/20 10:13:48;;;;;;;4.40;0.73;;;;;;;7.68;100.00;99968.06;5003507;28;20048;-96
2024/01/20 10:16:17;;;;;;;4.25;0.80;;;;;;;7.73;100.00;99959.75;5006774;28;20039;-96
2024/01/20 10:18:44;;;;;;;3.28;0.85;;;;;;;7.82;100.00;99955.44;5023433;28;20037;-96
2024/01/20 10:21:09;;;;;;;4.95;0.57;;;;;;;7.84;100.00;99961.41;5018973;28;20044;-87
2024/01/20 10:23:37;;;;;;;2.40;0.80;;;;;;;7.87;100.00;99955.06;5015224;28;20067;-96
2024/01/20 10:26:04;;;;;;;3.92;0.82;;;;;;;7.93;100.00;99941.34;4999858;28;20033;-96
2024/01/20 10:28:32;;;;;;;3.22;0.68;;;;;;;7.97;100.00;99958.50;5051120;28;20037;-96
2024/01/20 10:31:04;;;;;;;2.10;0.35;;;;;;;8.00;100.00;99946.84;5019653;28;20028;-96
2024/01/20 10:33:31;;;;;;;5.82;0.90;;;;;;;8.06;100.00;99956.81;5021542;28;20060;-96
2024/01/20 10:35:59;;;;;;;2.58;0.52;;;;;;;8.14;100.00;99953.47;5034870;28;20035;-95
2024/01/20 10:38:28;;;;;;;1.40;0.28;;;;;;;8.18;100.00;99942.56;5052998;28;20045;-96
2024/01/20 10:40:55;;;;;;;0.85;0.30;;;;;;;8.19;100.00;99940.72;5040459;28;20099;-96
2024/01/20 10:43:23;;;;;;;1.67;0.40;;;;;;;8.20;100.00;99929.25;5001969;28;20064;-96
2024/01/20 10:45:59;;;;;;;2.20;0.40;;;;;;;8.28;100.00;99944.34;5014249;28;20052;-96
2024/01/20 10:48:28;;;;;;;2.55;0.50;;;;;;;8.29;100.00;99936.31;5037242;28;20064;-96
2024/01/20 10:50:59;;;;;;;4.13;0.80;;;;;;;8.36;100.00;99935.72;5041409;28;20034;-96
2024/01/20 10:53:31;;;;;;;3.17;0.40;;;;;;;8.26;100.00;99918.16;4999133;28;20036;-96
2024/01/20 10:55:59;;;;;;;4.07;0.40;;;;;;;8.29;100.00;99919.66;5016952;28;20043;-96
2024/01/20 10:58:35;;;;;;;2.63;0.70;;;;;;;8.34;100.00;99922.69;5020412;28;20036;-95
2024/01/20 11:01:02;;;;;;;5.82;0.65;;;;;;;8.31;100.00;99926.44;5007561;28;20070;-96
2024/01/20 11:03:28;;;;;;;6.68;0.80;;;;;;;8.30;100.00;99910.78;5007683;28;20544;-96
2024/01/20 11:05:54;;;;;;;6.03;0.77;;;;;;;8.38;100.00;99912.69;5023686;28;20037;-96
2024/01/20 11:08:25;;;;;;;3.95;0.85;;;;;;;8.46;100.00;99907.53;5034314;28;20371;-96
2024/01/20 11:10:53;;;;;;;6.25;0.80;;;;;;;8.43;100.00;99892.88;5019627;28;20067;-94
2024/01/20 11:13:23;;;;;;;3.80;0.63;;;;;;;8.52;100.00;99890.34;5021084;28;20026;-96
2024/01/20 11:15:51;;;;;;;3.58;0.70;;;;;;;8.47;100.00;99882.03;5020278;28;20033;-96
2024/01/20 11:18:18;;;;;;;5.70;0.93;;;;;;;8.45;100.00;99887.47;5034893;28;20042;-96
2024/01/20 11:20:59;;;;;;;5.82;1.50;;;;;;;8.55;100.00;99882.19;4999955;28;20075;-96
2024/01/20 11:23:25;;;;;;;2.65;0.90;;;;;;;8.47;100.00;99868.88;5029836;28;20032;-96
2024/01/20 11:26:49;;;;;;;5.13;0.93;;;;;;;8.52;100.00;99867.47;5002845;28;20051;-96
2024/01/20 11:29:15;;;;;;;2.45;0.50;;;;;;;8.39;100.00;99851.16;5014313;28;20025;-95
2024/01/20 11:31:48;;;;;;;2.28;1.10;;;;;;;8.50;100.00;99876.50;5020303;28;20037;-96
2024/01/20 11:34:14;;;;;;;2.60;0.47;;;;;;;8.43;100.00;99866.53;5020024;28;20028;-93
2024/01/20 11:36:40;;;;;;;3.17;0.70;;;;;;;8.52;100.00;99867.47;5019390;28;20037;-95
2024/01/20 11:39:06;;;;;;;5.07;0.63;;;;;;;8.49;100.00;99862.47;5031274;28;20389;-96
2024/01/20 11:41:32;;;;;;;4.05;0.85;;;;;;;8.50;100.00;99861.53;5017855;28;20410;-96
2024/01/20 11:43:58;;;;;;;5.13;0.70;;;;;;;8.48;100.00;99855.56;5019229;28;20033;-96
2024/01/20 11:46:24;;;;;;;1.48;0.30;;;;;;;8.46;100.00;99839.06;4996251;28;20145;-95
2024/01/20 11:48:51;;;;;;;1.00;0.30;;;;;;;8.44;100.00;99854.22;5015273;28;20548;-96
2024/01/20 11:52:05;;;;;;;1.20;0.20;;;;;;;8.52;100.00;99850.84;5056300;28;20128;-95
2024/01/20 11:54:31;;;;;;;2.40;0.73;;;;;;;8.44;100.00;99836.59;5038562;28;20076;-96
2024/01/20 11:56:58;;;;;;;2.88;0.50;;;;;;;8.48;100.00;99836.28;5015852;28;20075;-95
2024/01/20 11:59:24;;;;;;;1.90;0.30;;;;;;;8.46;100.00;99830.34;5017195;28;20043;-96
2024/01/20 12:01:50;;;;;;;6.05;0.60;;;;;;;8.48;100.00;99829.22;5003106;28;20036;-96
2024/01/20 12:04:16;;;;;;;5.28;0.73;;;;;;;8.47;100.00;99826.75;5026626;28;20026;-96
2024/01/20 12:06:42;;;;;;;4.78;0.80;;;;;;;8.44;100.00;99814.69;5016954;28;20034;-95
2024/01/20 12:09:08;;;;;;;10.82;1.00;;;;;;;8.48;100.00;99807.31;5031425;28;20098;-96
2024/01/20 12:11:34;;;;;;;1.42;0.60;;;;;;;8.40;100.00;99803.63;5001210;28;20024;-96
2024/01/20 12:14:00;;;;;;;3.08;0.60;;;;;;;8.42;100.00;99795.56;5017103;28;20064;-96
2024/01/20 12:16:26;;;;;;;4.35;0.80;;;;;;;8.42;100.00;99782.41;4997452;28;20119;-95
2024/01/20 12:18:52;;;;;;;9.45;0.80;;;;;;;8.46;100.00;99775.84;5019872;28;20045;-96
2024/01/20 12:21:18;;;;;;;3.88;0.80;;;;;;;8.46;100.00;99780.31;5033194;28;20055;-96
2024/01/20 12:23:45;;;;;;;10.65;0.70;;;;;;;8.46;100.00;99777.69;5019375;28;20116;-95
2024/01/20 12:26:16;;;;;;;7.35;1.25;;;;;;;8.45;100.00;99753.16;4998689;28;20490;-96
2024/01/20 12:28:42;;;;;;;7.18;0.88;;;;;;;8.46;100.00;99760.06;5002456;28;20064;-94
2024/01/20 12:31:08;;;;;;;8.07;1.05;;;;;;;8.49;100.00;99751.84;5008382;28;20029;-96
2024/01/20 12:33:34;;;;;;;4.20;0.80;;;;;;;8.42;100.00;99737.63;5030803;28;20029;-96
2024/01/20 12:36:01;;;;;;;6.70;1.42;;;;;;;8.40;100.00;99727.25;5029521;28;20381;-96
2024/01/20 12:38:27;;;;;;;6.57;0.90;;;;;;;8.42;100.00;99732.38;5032243;28;20033;-96
2024/01/20 12:40:53;;;;;;;2.97;0.90;;;;;;;8.42;100.00;99717.41;5010030;28;20045;-96
2024/01/20 12:43:19;;;;;;;4.32;0.77;;;;;;;8.47;100.00;99719.59;5037003;28;20497;-96
2024/01/20 12:45:45;;;;;;;6.47;0.98;;;;;;;8.44;100.00;99719.88;5028959;28;20040;-94
2024/01/20 12:48:11;;;;;;;4.50;0.73;;;;;;;8.47;100.00;99716.13;5033159;28;20025;-95
2024/01/20 12:50:37;;;;;;;9.32;1.58;;;;;;;8.51;100.00;99710.41;5026536;28;20105;-95
2024/01/20 12:53:03;;;;;;;4.18;0.80;;;;;;;8.49;100.00;99707.09;5008381;28;20550;-96
2024/01/20 12:55:30;;;;;;;4.45;0.70;;;;;;;8.54;100.00;99717.16;5019103;28;20041;-96
2024/01/20 12:57:56;;;;;;;8.13;1.02;;;;;;;8.58;100.00;99712.47;5015898;28;20044;-96
2024/01/20 13:00:22;;;;;;;8.00;1.33;;;;;;;8.58;100.00;99704.56;5034444;28;20024;-96
2024/01/20 13:02:48;;;;;;;6.30;0.90;;;;;;;8.60;100.00;99700.00;5018400;28;20477;-95
2024/01/20 13:05:13;;;;;;;6.15;1.85;;;;;;;8.64;100.00;99696.06;5001725;28;20033;-93
2024/01/20 13:07:39;;;;;;;3.08;1.13;;;;;;;8.67;100.00;99703.66;5016226;28;20025;-96
2024/01/20 13:10:06;;;;;;;7.43;1.95;;;;;;;8.68;100.00;99694.78;5017622;28;20071;-95
2024/01/20 13:12:32;;;;;;;8.57;2.28;;;;;;;8.68;100.00;99671.06;5023787;28;20610;-93
2024/01/20 13:14:58;;;;;;;5.65;2.33;;;;;;;8.74;100.00;99667.00;5017719;28;20033;-94
2024/01/20 13:17:25;;;;;;;7.68;1.67;;;;;;;8.74;100.00;99667.84;5019699;28;20087;-96
2024/01/20 13:19:51;;;;;;;5.05;1.15;;;;;;;8.81;100.00;99676.78;5019165;28;20041;-96
2024/01/20 13:22:43;;;;;;;8.60;2.10;;;;;;;8.89;100.00;99680.47;5020159;28;20056;-96
2024/01/20 13:25:16;;;;;;;12.32;7.32;;;;;;;8.90;100.00;99669.78;5035923;28;20040;-95
2024/01/20 13:27:42;;;;;;;11.88;6.18;;;;;;;8.92;100.00;99674.88;4998076;28;20473;-95
2024/01/20 13:30:08;;;;;;;9.82;3.30;;;;;;;8.93;100.00;99684.47;5014269;28;20037;-96
2024/01/20 13:32:34;;;;;;;4.80;1.90;;;;;;;8.95;100.00;99668.50;5000023;28;20628;-95
2024/01/20 13:35:00;;;;;;;7.03;1.90;;;;;;;8.95;100.00;99657.97;4998046;28;20132;-96
2024/01/20 13:37:44;;;;;;;6.63;2.53;;;;;;;9.02;100.00;99659.00;5043960;28;20100;-96
2024/01/20 13:40:10;;;;;;;6.70;1.58;;;;;;;8.94;100.00;99654.50;5010145;28;20041;-95
2024/01/20 13:56:31;;;;;;;11.68;2.40;;;;;;;9.01;100.00;99638.91;4855794;29;20052;-93
2024/01/20 14:04:29;;;;;;;20.77;5.88;;;;;;;8.97;100.00;99634.88;4798997;29;20053;-96
2024/01/20 14:06:57;;;;;;;12.00;2.65;;;;;;;8.91;100.00;99620.53;4840871;29;20045;-96
2024/01/20 14:09:24;;;;;;;12.70;3.65;;;;;;;8.92;100.00;99606.38;4854359;29;20519;-96
2024/01/20 14:11:50;;;;;;;17.25;6.60;;;;;;;8.97;100.00;99612.00;4877210;29;20048;-95
2024/01/20 14:14:16;;;;;;;27.27;8.18;;;;;;;9.00;100.00;99610.88;4927104;29;20477;-93
2024/01/20 14:16:58;;;;;;;17.92;6.93;;;;;;;9.03;100.00;99594.75;4916842;29;20528;-93
2024/01/20 14:19:27;;;;;;;11.15;3.97;;;;;;;8.99;100.00;99588.13;5030858;28;20049;-95
2024/01/20 14:22:11;;;;;;;19.77;8.32;;;;;;;8.98;100.00;99586.50;5015231;28;20046;-96
2024/01/20 14:24:46;;;;;;;9.88;1.98;;;;;;;8.91;100.00;99573.94;4992507;28;20652;-94
2024/01/20 14:27:15;;;;;;;11.27;3.67;;;;;;;8.97;100.00;99590.91;5013556;28;20041;-91
2024/01/20 14:29:41;;;;;;;9.35;3.80;;;;;;;9.02;100.00;99588.66;4996044;28;20063;-93
2024/01/20 14:32:09;;;;;;;9.80;3.67;;;;;;;9.02;100.00;99574.63;4979053;28;20097;-92
2024/01/20 14:34:35;;;;;;;6.03;2.08;;;;;;;9.01;100.00;99565.09;4984733;28;20033;-95
2024/01/20 14:37:01;;;;;;;12.70;7.00;;;;;;;9.00;100.00;99568.72;4985164;28;20515;-92
2024/01/20 14:39:27;;;;;;;6.47;2.22;;;;;;;8.97;100.00;99543.47;4981109;28;20059;-94
2024/01/20 14:41:53;;;;;;;7.65;1.20;;;;;;;9.00;100.00;99548.44;4978963;28;20042;-96
2024/01/20 14:44:19;;;;;;;4.15;1.50;;;;;;;8.97;100.00;99547.91;4997424;28;20041;-93
2024/01/20 14:46:45;;;;;;;4.30;1.30;;;;;;;8.99;100.00;99543.31;4984262;28;20044;-94
2024/01/20 14:49:11;;;;;;;5.20;1.17;;;;;;;9.00;100.00;99540.53;4996485;28;20128;-94
2024/01/20 14:51:36;;;;;;;4.82;0.80;;;;;;;8.96;100.00;99536.56;4979013;28;20045;-94
2024/01/20 14:54:04;;;;;;;4.88;1.10;;;;;;;8.91;100.00;99528.28;5015142;28;20874;-95
2024/01/20 14:56:31;;;;;;;5.10;1.45;;;;;;;8.94;100.00;99541.16;5002463;28;20064;-95
2024/01/20 14:59:02;;;;;;;6.10;1.17;;;;;;;8.93;100.00;99536.88;4997131;28;20038;-93
2024/01/20 15:01:33;;;;;;;7.53;0.80;;;;;;;8.93;100.00;99531.59;5014153;28;20064;-95
2024/01/20 15:03:59;;;;;;;6.85;0.57;;;;;;;8.87;100.00;99535.66;4980438;28;20041;-95
2024/01/20 15:06:26;;;;;;;2.03;0.60;;;;;;;8.87;100.00;99519.84;4998002;28;20042;-95
2024/01/20 15:08:53;;;;;;;4.32;0.98;;;;;;;8.87;100.00;99527.75;4996086;28;20037;-94
2024/01/20 15:11:19;;;;;;;3.38;1.23;;;;;;;8.87;100.00;99522.50;4998519;28;20108;-95